createdAt,value
2018-03-29T00:00:08.195Z,7.83
2018-03-29T00:02:36.544Z,9.10
2018-03-29T00:05:04.880Z,9.03
2018-03-29T00:07:33.973Z,10.23
2018-03-29T00:10:02.307Z,8.50
2018-03-29T00:12:30.795Z,9.67
2018-03-29T00:14:59.163Z,7.90
2018-03-29T00:17:28.283Z,9.00
2018-03-29T00:19:56.595Z,8.90
2018-03-29T00:22:24.925Z,9.63
2018-03-29T00:24:54.035Z,8.93
2018-03-29T00:27:22.373Z,8.30
2018-03-29T00:29:51.507Z,8.73
2018-03-29T00:32:20.638Z,8.33
2018-03-29T00:34:49.009Z,8.10
2018-03-29T00:37:17.373Z,9.70
2018-03-29T00:39:46.470Z,10.17
2018-03-29T00:42:15.597Z,9.80
2018-03-29T00:44:43.930Z,9.20
2018-03-29T00:47:12.273Z,10.00
2018-03-29T00:49:40.615Z,9.77
2018-03-29T00:52:08.963Z,11.00
2018-03-29T00:54:37.287Z,9.80
2018-03-29T00:57:05.644Z,9.97
2018-03-29T00:59:34.733Z,11.27
2018-03-29T01:02:03.116Z,12.50
2018-03-29T01:04:32.367Z,12.87
2018-03-29T01:07:00.711Z,12.80
2018-03-29T01:09:29.841Z,13.30
2018-03-29T01:11:58.287Z,13.50
2018-03-29T01:14:27.427Z,15.13
2018-03-29T01:16:55.766Z,14.30
2018-03-29T01:19:24.089Z,14.97
2018-03-29T01:21:52.433Z,16.90
2018-03-29T01:24:20.845Z,16.63
2018-03-29T01:26:49.279Z,17.63
2018-03-29T01:29:17.667Z,16.77
2018-03-29T01:31:46.840Z,16.00
2018-03-29T01:34:15.185Z,18.57
2018-03-29T01:36:43.531Z,16.77
2018-03-29T01:39:11.895Z,18.70
2018-03-29T01:41:40.271Z,16.33
2018-03-29T01:44:08.649Z,19.27
2018-03-29T01:46:37.743Z,17.40
2018-03-29T01:49:06.122Z,18.20
2018-03-29T01:51:34.505Z,18.73
2018-03-29T01:54:02.949Z,18.67
2018-03-29T01:56:32.055Z,18.90
2018-03-29T01:59:01.205Z,20.53
2018-03-29T02:01:29.541Z,20.43
2018-03-29T02:03:57.864Z,18.90
2018-03-29T02:06:27.042Z,21.83
2018-03-29T02:08:55.443Z,19.43
2018-03-29T02:11:23.809Z,18.87
2018-03-29T02:13:52.265Z,19.57
2018-03-29T02:16:20.718Z,19.87
2018-03-29T02:18:49.068Z,19.13
2018-03-29T02:21:17.424Z,21.53
2018-03-29T02:23:45.776Z,21.20
2018-03-29T02:26:14.874Z,20.30
2018-03-29T02:28:43.229Z,19.90
2018-03-29T02:31:11.542Z,19.40
2018-03-29T02:33:40.679Z,18.63
2018-03-29T02:36:09.202Z,20.50
2018-03-29T02:38:37.560Z,21.87
2018-03-29T02:41:05.909Z,23.07
2018-03-29T02:43:34.253Z,22.07
2018-03-29T02:46:02.615Z,23.13
2018-03-29T02:48:30.954Z,19.80
2018-03-29T02:51:00.099Z,19.97
2018-03-29T02:53:28.459Z,21.20
2018-03-29T02:55:56.782Z,21.23
2018-03-29T02:58:25.130Z,21.90
2018-03-29T03:00:53.492Z,21.37
2018-03-29T03:03:22.603Z,23.00
2018-03-29T03:05:50.969Z,20.50
2018-03-29T03:08:19.314Z,22.23
2018-03-29T03:10:48.438Z,21.67
2018-03-29T03:13:16.765Z,24.63
2018-03-29T03:15:45.887Z,21.87
2018-03-29T03:18:14.214Z,22.10
2018-03-29T03:20:42.655Z,22.30
2018-03-29T03:23:11.061Z,20.87
2018-03-29T03:25:39.396Z,22.57
2018-03-29T03:28:07.776Z,20.63
2018-03-29T03:30:36.184Z,22.23
2018-03-29T03:33:05.281Z,20.37
2018-03-29T03:35:34.364Z,20.47
2018-03-29T03:38:02.723Z,20.10
2018-03-29T03:40:31.085Z,21.30
2018-03-29T03:42:59.501Z,21.27
2018-03-29T03:45:27.845Z,20.57
2018-03-29T03:47:57.071Z,22.30
2018-03-29T03:50:25.434Z,22.83
2018-03-29T03:52:53.757Z,22.60
2018-03-29T03:55:22.088Z,24.17
2018-03-29T03:57:50.671Z,23.77
2018-03-29T04:00:19.001Z,23.80
2018-03-29T04:02:47.391Z,24.17
2018-03-29T04:05:15.723Z,25.03
2018-03-29T04:07:44.876Z,25.27
2018-03-29T04:10:13.210Z,23.67
2018-03-29T04:12:41.598Z,24.43
2018-03-29T04:15:10.000Z,23.97
2018-03-29T04:17:38.504Z,22.60
2018-03-29T04:20:08.486Z,21.67
2018-03-29T04:22:36.851Z,24.27
2018-03-29T04:25:05.173Z,23.47
2018-03-29T04:27:33.645Z,21.77
2018-03-29T04:30:02.024Z,22.90
2018-03-29T04:32:30.395Z,21.20
2018-03-29T04:34:58.805Z,19.93
2018-03-29T04:37:27.177Z,20.53
2018-03-29T04:39:55.530Z,21.30
2018-03-29T04:42:23.944Z,21.90
2018-03-29T04:44:52.289Z,19.93
2018-03-29T04:47:21.476Z,20.27
2018-03-29T04:49:50.625Z,21.23
2018-03-29T04:52:19.091Z,21.20
2018-03-29T04:54:47.450Z,20.83
2018-03-29T04:57:15.876Z,22.70
2018-03-29T04:59:44.213Z,23.77
2018-03-29T05:02:13.422Z,21.40
2018-03-29T05:04:41.764Z,23.00
2018-03-29T05:07:10.233Z,22.57
2018-03-29T05:09:38.651Z,23.90
2018-03-29T05:12:07.487Z,23.30
2018-03-29T05:14:35.860Z,25.70
2018-03-29T05:17:04.185Z,26.43
2018-03-29T05:19:32.520Z,26.70
2018-03-29T05:22:00.854Z,29.33
2018-03-29T05:24:30.063Z,29.63
2018-03-29T05:26:59.130Z,28.40
2018-03-29T05:29:27.517Z,27.43
2018-03-29T05:31:55.864Z,28.67
2018-03-29T05:34:24.304Z,30.17
2018-03-29T05:36:52.944Z,30.80
2018-03-29T05:39:21.825Z,29.77
2018-03-29T05:41:50.214Z,29.10
2018-03-29T05:44:18.552Z,28.40
2018-03-29T05:46:47.027Z,26.70
2018-03-29T05:49:15.449Z,29.30
2018-03-29T05:51:43.840Z,28.67
2018-03-29T05:54:12.188Z,27.10
2018-03-29T05:56:40.541Z,28.17
2018-03-29T05:59:08.897Z,26.40
2018-03-29T06:01:37.244Z,29.27
2018-03-29T06:04:06.386Z,26.97
2018-03-29T06:06:34.772Z,27.13
2018-03-29T06:09:03.220Z,27.50
2018-03-29T06:11:31.608Z,26.73
2018-03-29T06:14:05.603Z,24.37
2018-03-29T06:16:39.537Z,27.40
2018-03-29T06:19:09.700Z,25.87
2018-03-29T06:21:38.126Z,27.20
2018-03-29T06:24:06.512Z,24.37
2018-03-29T06:26:34.860Z,23.70
2018-03-29T06:29:04.007Z,24.90
2018-03-29T06:31:32.331Z,25.90
2018-03-29T06:34:00.700Z,25.37
2018-03-29T06:36:29.044Z,26.13
2018-03-29T06:38:57.397Z,24.20
2018-03-29T06:41:26.483Z,23.73
2018-03-29T06:43:54.861Z,24.27
2018-03-29T06:46:23.290Z,23.90
2018-03-29T06:48:52.381Z,24.20
2018-03-29T06:51:20.731Z,25.00
2018-03-29T06:53:49.108Z,24.60
2018-03-29T06:56:18.266Z,24.50
2018-03-29T06:58:46.578Z,24.87
2018-03-29T07:01:14.895Z,23.83
2018-03-29T07:03:43.264Z,24.33
2018-03-29T07:06:12.403Z,23.80
2018-03-29T07:08:40.724Z,24.00
2018-03-29T07:11:09.025Z,26.07
2018-03-29T07:13:37.524Z,24.37
2018-03-29T07:16:06.621Z,25.63
2018-03-29T07:18:35.731Z,24.10
2018-03-29T07:21:04.108Z,23.57
2018-03-29T07:23:32.450Z,23.90
2018-03-29T07:26:00.762Z,24.07
2018-03-29T07:28:30.173Z,22.50
2018-03-29T07:30:58.613Z,23.60
2018-03-29T07:33:26.952Z,25.10
2018-03-29T07:35:55.328Z,26.73
2018-03-29T07:38:23.644Z,25.53
2018-03-29T07:40:51.974Z,24.20
2018-03-29T07:43:21.076Z,25.60
2018-03-29T07:45:50.152Z,24.73
2018-03-29T07:48:18.500Z,23.93
2018-03-29T07:50:46.814Z,25.53
2018-03-29T07:53:15.164Z,23.17
2018-03-29T07:55:43.503Z,24.97
2018-03-29T07:58:12.638Z,21.93
2018-03-29T08:00:40.952Z,24.47
2018-03-29T08:03:10.047Z,25.77
2018-03-29T08:05:38.379Z,24.77
2018-03-29T08:08:07.311Z,25.37
2018-03-29T08:10:35.644Z,25.53
2018-03-29T08:13:03.991Z,26.67
2018-03-29T08:15:32.302Z,25.20
2018-03-29T08:18:01.398Z,26.53
2018-03-29T08:20:30.504Z,25.80
